CDY3 weather

Fogo Airport
Fogo, Newfoundland and Labrador, Canada

Public forecast

Using degrees Celsius for public forecast. Weather courtesy of forecast.io.

METAR (pilot weather report)

Closest report is Gander International Airport, 45.2 nm (83.6 km) SSW. Retrieved 2019/07/21 19:00 UTC (10 minutes ago):

CYQX 211900Z 16011KT 15SM BKN011 OVC025 15/13 A2970 RMK SC7SC1 SLP062 DENSITY ALT 900FT

TAF (pilot weather forecast)

Closest forecast is Gander International Airport, 45.2 nm (83.6 km) SSW. Retrieved 2019/07/21 18:39 UTC (31 minutes ago):

TAF CYQX 211738Z 2118/2218 16010KT P6SM SCT015 BKN030 TEMPO 2118/2124 P6SM -SHRA OVC015 FM220000 16010KT P6SM OVC012 TEMPO 2200/2203 2SM -DZ BR OVC003 FM220300 16010KT 3/4SM -RA BR OVC003 FM221200 14005KT P6SM OVC006 FM221500 32005KT P6SM OVC015 RMK NXT FCST BY 220000Z